sensor_id;sensor_type;location;lat;lon;timestamp;pressure;altitude;pressure_sealevel;temperature;humidity
60258;BME280;46115;44.484;11.314;2024-01-10T00:02:51;101327.16;;;5.70;70.26
60258;BME280;46115;44.484;11.314;2024-01-10T00:06:54;101319.53;;;5.53;70.21
60258;BME280;46115;44.484;11.314;2024-01-10T00:10:57;101321.22;;;5.58;69.73
60258;BME280;46115;44.484;11.314;2024-01-10T00:15:00;101286.84;;;5.15;69.37
60258;BME280;46115;44.484;11.314;2024-01-10T00:19:02;101327.44;;;5.51;69.65
60258;BME280;46115;44.484;11.314;2024-01-10T00:23:05;101295.34;;;5.34;69.55
60258;BME280;46115;44.484;11.314;2024-01-10T00:27:09;101335.00;;;5.08;71.81
60258;BME280;46115;44.484;11.314;2024-01-10T00:31:12;101320.47;;;4.81;70.53
60258;BME280;46115;44.484;11.314;2024-01-10T00:35:14;101324.53;;;5.08;69.97
60258;BME280;46115;44.484;11.314;2024-01-10T00:39:17;101335.94;;;5.04;70.15
60258;BME280;46115;44.484;11.314;2024-01-10T00:43:21;101340.84;;;5.30;69.03
60258;BME280;46115;44.484;11.314;2024-01-10T00:47:23;101335.22;;;4.91;68.80
60258;BME280;46115;44.484;11.314;2024-01-10T00:51:25;101338.41;;;4.39;69.92
60258;BME280;46115;44.484;11.314;2024-01-10T00:55:27;101347.00;;;4.51;70.46
60258;BME280;46115;44.484;11.314;2024-01-10T00:59:31;101344.44;;;4.45;68.95
60258;BME280;46115;44.484;11.314;2024-01-10T01:03:34;101345.53;;;4.25;70.01
60258;BME280;46115;44.484;11.314;2024-01-10T01:07:37;101345.50;;;4.27;69.81
60258;BME280;46115;44.484;11.314;2024-01-10T01:11:39;101353.28;;;4.34;70.59
60258;BME280;46115;44.484;11.314;2024-01-10T01:15:43;101358.84;;;3.96;70.51
60258;BME280;46115;44.484;11.314;2024-01-10T01:19:46;101359.69;;;4.00;69.96
60258;BME280;46115;44.484;11.314;2024-01-10T01:23:48;101336.44;;;3.60;71.03
60258;BME280;46115;44.484;11.314;2024-01-10T01:27:51;101363.78;;;4.33;69.81
60258;BME280;46115;44.484;11.314;2024-01-10T01:31:54;101362.19;;;4.14;70.34
60258;BME280;46115;44.484;11.314;2024-01-10T01:35:57;101357.03;;;4.03;69.49
60258;BME280;46115;44.484;11.314;2024-01-10T01:40:00;101357.09;;;3.95;70.98
60258;BME280;46115;44.484;11.314;2024-01-10T01:44:02;101365.19;;;3.63;71.27
60258;BME280;46115;44.484;11.314;2024-01-10T01:48:07;101358.78;;;4.04;70.65
60258;BME280;46115;44.484;11.314;2024-01-10T01:52:10;101363.19;;;3.97;71.10
60258;BME280;46115;44.484;11.314;2024-01-10T01:56:13;101369.69;;;3.34;73.02
60258;BME280;46115;44.484;11.314;2024-01-10T02:00:16;101367.56;;;3.95;72.44
60258;BME280;46115;44.484;11.314;2024-01-10T02:04:21;101365.75;;;4.03;71.76
60258;BME280;46115;44.484;11.314;2024-01-10T02:08:24;101362.44;;;3.82;71.66
60258;BME280;46115;44.484;11.314;2024-01-10T02:12:26;101365.53;;;4.32;70.33
60258;BME280;46115;44.484;11.314;2024-01-10T02:16:29;101366.75;;;3.90;70.41
60258;BME280;46115;44.484;11.314;2024-01-10T02:20:33;101366.72;;;3.92;71.85
60258;BME280;46115;44.484;11.314;2024-01-10T02:24:35;101362.84;;;4.37;71.04
60258;BME280;46115;44.484;11.314;2024-01-10T02:28:39;101316.00;;;4.06;71.14
60258;BME280;46115;44.484;11.314;2024-01-10T02:32:41;101361.31;;;4.13;71.77
60258;BME280;46115;44.484;11.314;2024-01-10T02:36:44;101360.94;;;4.57;70.86
60258;BME280;46115;44.484;11.314;2024-01-10T02:40:46;101366.13;;;4.62;69.97
60258;BME280;46115;44.484;11.314;2024-01-10T02:44:50;101361.88;;;4.49;70.22
60258;BME280;46115;44.484;11.314;2024-01-10T02:48:53;101356.94;;;5.01;69.03
60258;BME280;46115;44.484;11.314;2024-01-10T02:52:56;101363.28;;;4.80;68.71
60258;BME280;46115;44.484;11.314;2024-01-10T02:56:58;101357.91;;;4.94;68.71
60258;BME280;46115;44.484;11.314;2024-01-10T03:01:02;101363.34;;;4.74;69.98
60258;BME280;46115;44.484;11.314;2024-01-10T03:05:05;101355.28;;;4.94;69.20
60258;BME280;46115;44.484;11.314;2024-01-10T03:09:08;101355.38;;;4.88;69.03
60258;BME280;46115;44.484;11.314;2024-01-10T03:13:10;101353.47;;;5.00;67.97
60258;BME280;46115;44.484;11.314;2024-01-10T03:17:14;101355.84;;;5.19;68.23
60258;BME280;46115;44.484;11.314;2024-01-10T03:21:17;101351.84;;;4.89;68.21
60258;BME280;46115;44.484;11.314;2024-01-10T03:25:24;101349.75;;;5.17;67.55
60258;BME280;46115;44.484;11.314;2024-01-10T03:29:26;101347.75;;;4.65;67.99
60258;BME280;46115;44.484;11.314;2024-01-10T03:33:30;101348.19;;;5.04;67.40
60258;BME280;46115;44.484;11.314;2024-01-10T03:37:32;101354.50;;;4.87;66.83
60258;BME280;46115;44.484;11.314;2024-01-10T03:41:36;101366.53;;;5.02;67.69
60258;BME280;46115;44.484;11.314;2024-01-10T03:45:39;101358.38;;;5.26;67.08
60258;BME280;46115;44.484;11.314;2024-01-10T03:49:43;101349.63;;;5.27;66.70
60258;BME280;46115;44.484;11.314;2024-01-10T03:53:45;101350.13;;;4.85;68.35
60258;BME280;46115;44.484;11.314;2024-01-10T03:57:50;101345.63;;;4.99;68.14
60258;BME280;46115;44.484;11.314;2024-01-10T04:01:52;101350.06;;;4.92;68.30
60258;BME280;46115;44.484;11.314;2024-01-10T04:05:56;101349.31;;;4.81;68.64
60258;BME280;46115;44.484;11.314;2024-01-10T04:09:59;101355.06;;;5.11;67.80
60258;BME280;46115;44.484;11.314;2024-01-10T04:14:01;101353.38;;;5.07;68.15
60258;BME280;46115;44.484;11.314;2024-01-10T04:18:05;101355.09;;;5.08;68.86
60258;BME280;46115;44.484;11.314;2024-01-10T04:22:08;101348.53;;;4.73;68.57
60258;BME280;46115;44.484;11.314;2024-01-10T04:26:11;101350.03;;;4.95;68.70
60258;BME280;46115;44.484;11.314;2024-01-10T04:30:13;101348.75;;;5.27;67.98
60258;BME280;46115;44.484;11.314;2024-01-10T04:34:16;101349.06;;;5.03;68.67
60258;BME280;46115;44.484;11.314;2024-01-10T04:38:20;101353.34;;;5.10;68.04
60258;BME280;46115;44.484;11.314;2024-01-10T04:42:27;101347.19;;;4.34;68.93
60258;BME280;46115;44.484;11.314;2024-01-10T04:46:29;101336.94;;;4.94;68.30
60258;BME280;46115;44.484;11.314;2024-01-10T04:50:31;101343.03;;;4.96;67.31
60258;BME280;46115;44.484;11.314;2024-01-10T04:54:35;101347.84;;;4.56;68.78
60258;BME280;46115;44.484;11.314;2024-01-10T04:58:37;101344.34;;;4.57;70.08
60258;BME280;46115;44.484;11.314;2024-01-10T05:02:40;101351.97;;;4.78;68.63
60258;BME280;46115;44.484;11.314;2024-01-10T05:06:42;101344.31;;;4.60;69.21
60258;BME280;46115;44.484;11.314;2024-01-10T05:10:46;101343.50;;;4.53;70.04
60258;BME280;46115;44.484;11.314;2024-01-10T05:14:48;101361.25;;;4.22;71.64
60258;BME280;46115;44.484;11.314;2024-01-10T05:18:50;101351.81;;;4.03;72.91
60258;BME280;46115;44.484;11.314;2024-01-10T05:22:53;101357.50;;;4.52;71.06
60258;BME280;46115;44.484;11.314;2024-01-10T05:27:00;101358.88;;;3.92;73.92
60258;BME280;46115;44.484;11.314;2024-01-10T05:31:03;101373.78;;;3.78;73.58
60258;BME280;46115;44.484;11.314;2024-01-10T05:35:06;101378.16;;;3.74;72.74
60258;BME280;46115;44.484;11.314;2024-01-10T05:39:09;101385.91;;;3.91;73.13
60258;BME280;46115;44.484;11.314;2024-01-10T05:43:14;101399.94;;;3.79;74.19
60258;BME280;46115;44.484;11.314;2024-01-10T05:47:16;101395.41;;;4.05;72.53
60258;BME280;46115;44.484;11.314;2024-01-10T05:51:18;101397.78;;;4.33;72.38
60258;BME280;46115;44.484;11.314;2024-01-10T05:55:21;101402.94;;;4.42;72.48
60258;BME280;46115;44.484;11.314;2024-01-10T05:59:25;101400.81;;;3.83;74.19
60258;BME280;46115;44.484;11.314;2024-01-10T06:03:28;101400.69;;;3.96;73.95
60258;BME280;46115;44.484;11.314;2024-01-10T06:07:30;101403.81;;;4.41;71.83
60258;BME280;46115;44.484;11.314;2024-01-10T06:11:32;101404.75;;;4.37;72.53
60258;BME280;46115;44.484;11.314;2024-01-10T06:15:36;101403.13;;;4.24;72.69
60258;BME280;46115;44.484;11.314;2024-01-10T06:19:39;101412.72;;;4.22;72.60
60258;BME280;46115;44.484;11.314;2024-01-10T06:23:41;101410.38;;;3.84;74.16
60258;BME280;46115;44.484;11.314;2024-01-10T06:27:43;101409.25;;;4.15;73.80
60258;BME280;46115;44.484;11.314;2024-01-10T06:31:47;101418.03;;;4.10;74.12
60258;BME280;46115;44.484;11.314;2024-01-10T06:35:49;101417.00;;;4.33;73.99
60258;BME280;46115;44.484;11.314;2024-01-10T06:39:51;101427.63;;;4.12;74.19
60258;BME280;46115;44.484;11.314;2024-01-10T06:43:54;101423.31;;;4.03;74.34
60258;BME280;46115;44.484;11.314;2024-01-10T06:47:57;101428.22;;;4.46;73.67
60258;BME280;46115;44.484;11.314;2024-01-10T06:52:00;101429.34;;;4.19;74.15
60258;BME280;46115;44.484;11.314;2024-01-10T06:56:03;101437.13;;;4.25;73.52
60258;BME280;46115;44.484;11.314;2024-01-10T07:00:06;101436.91;;;4.54;72.89
60258;BME280;46115;44.484;11.314;2024-01-10T07:04:13;101439.56;;;4.47;73.78
60258;BME280;46115;44.484;11.314;2024-01-10T07:08:15;101437.84;;;4.44;74.40
60258;BME280;46115;44.484;11.314;2024-01-10T07:12:18;101442.34;;;4.28;73.63
60258;BME280;46115;44.484;11.314;2024-01-10T07:16:20;101452.97;;;4.04;73.79
60258;BME280;46115;44.484;11.314;2024-01-10T07:20:24;101449.09;;;4.57;72.89
60258;BME280;46115;44.484;11.314;2024-01-10T07:24:27;101455.28;;;4.47;73.40
60258;BME280;46115;44.484;11.314;2024-01-10T07:28:29;101455.66;;;4.99;72.33
60258;BME280;46115;44.484;11.314;2024-01-10T07:32:31;101457.66;;;4.73;72.89
60258;BME280;46115;44.484;11.314;2024-01-10T07:36:40;101469.72;;;4.92;71.06
60258;BME280;46115;44.484;11.314;2024-01-10T07:40:43;101468.78;;;4.97;70.97
60258;BME280;46115;44.484;11.314;2024-01-10T07:44:45;101475.09;;;4.77;71.64
60258;BME280;46115;44.484;11.314;2024-01-10T07:48:48;101477.53;;;4.98;69.89
60258;BME280;46115;44.484;11.314;2024-01-10T07:52:53;101474.63;;;5.25;69.46
60258;BME280;46115;44.484;11.314;2024-01-10T07:56:56;101492.31;;;5.04;69.68
60258;BME280;46115;44.484;11.314;2024-01-10T08:00:58;101486.75;;;5.32;68.78
60258;BME280;46115;44.484;11.314;2024-01-10T08:05:02;101493.72;;;5.37;68.07
60258;BME280;46115;44.484;11.314;2024-01-10T08:09:07;101495.31;;;5.48;67.73
60258;BME280;46115;44.484;11.314;2024-01-10T08:13:11;101498.72;;;5.58;67.26
60258;BME280;46115;44.484;11.314;2024-01-10T08:17:14;101513.06;;;5.25;67.77
60258;BME280;46115;44.484;11.314;2024-01-10T08:21:17;101507.47;;;5.57;67.62
60258;BME280;46115;44.484;11.314;2024-01-10T08:25:21;101506.75;;;5.41;67.92
60258;BME280;46115;44.484;11.314;2024-01-10T08:29:24;101516.75;;;5.82;66.34
60258;BME280;46115;44.484;11.314;2024-01-10T08:33:31;101512.00;;;5.43;66.95
60258;BME280;46115;44.484;11.314;2024-01-10T08:37:33;101517.72;;;5.77;65.38
60258;BME280;46115;44.484;11.314;2024-01-10T08:41:37;101519.34;;;5.90;64.27
60258;BME280;46115;44.484;11.314;2024-01-10T08:45:45;101519.06;;;5.36;65.96
60258;BME280;46115;44.484;11.314;2024-01-10T08:49:47;101528.09;;;5.84;64.53
60258;BME280;46115;44.484;11.314;2024-01-10T08:53:50;101531.56;;;5.92;65.08
60258;BME280;46115;44.484;11.314;2024-01-10T08:57:55;101542.00;;;5.96;65.43
60258;BME280;46115;44.484;11.314;2024-01-10T09:01:57;101547.81;;;6.17;62.49
60258;BME280;46115;44.484;11.314;2024-01-10T09:06:00;101551.38;;;6.15;61.83
60258;BME280;46115;44.484;11.314;2024-01-10T09:10:05;101547.97;;;6.07;61.87
60258;BME280;46115;44.484;11.314;2024-01-10T09:14:10;101560.44;;;5.89;59.92
60258;BME280;46115;44.484;11.314;2024-01-10T09:18:12;101561.72;;;6.24;58.75
60258;BME280;46115;44.484;11.314;2024-01-10T09:22:15;101565.56;;;6.02;60.32
60258;BME280;46115;44.484;11.314;2024-01-10T09:26:17;101567.53;;;5.80;61.63
60258;BME280;46115;44.484;11.314;2024-01-10T09:30:21;101569.16;;;5.88;61.09
60258;BME280;46115;44.484;11.314;2024-01-10T09:34:25;101571.44;;;6.19;59.60
60258;BME280;46115;44.484;11.314;2024-01-10T09:38:27;101568.59;;;6.36;59.55
60258;BME280;46115;44.484;11.314;2024-01-10T09:42:30;101579.09;;;6.36;58.56
60258;BME280;46115;44.484;11.314;2024-01-10T09:46:37;101565.84;;;6.43;56.68
60258;BME280;46115;44.484;11.314;2024-01-10T09:50:41;101567.28;;;6.66;56.62
60258;BME280;46115;44.484;11.314;2024-01-10T09:54:43;101574.13;;;6.76;56.93
60258;BME280;46115;44.484;11.314;2024-01-10T09:58:48;101568.59;;;6.94;56.20
60258;BME280;46115;44.484;11.314;2024-01-10T10:02:54;101566.00;;;6.89;56.69
60258;BME280;46115;44.484;11.314;2024-01-10T10:06:58;101572.94;;;6.97;57.91
60258;BME280;46115;44.484;11.314;2024-01-10T10:11:02;101567.75;;;6.89;59.07
60258;BME280;46115;44.484;11.314;2024-01-10T10:15:10;101565.81;;;6.46;58.12
60258;BME280;46115;44.484;11.314;2024-01-10T10:19:22;101573.84;;;6.93;57.31
60258;BME280;46115;44.484;11.314;2024-01-10T10:23:25;101562.63;;;6.81;55.44
60258;BME280;46115;44.484;11.314;2024-01-10T10:27:27;101566.19;;;6.79;56.91
60258;BME280;46115;44.484;11.314;2024-01-10T10:31:30;101565.38;;;6.75;56.31
60258;BME280;46115;44.484;11.314;2024-01-10T10:35:35;101561.22;;;6.62;58.25
60258;BME280;46115;44.484;11.314;2024-01-10T10:39:37;101550.44;;;6.77;57.21
60258;BME280;46115;44.484;11.314;2024-01-10T10:43:40;101554.50;;;6.98;57.64
60258;BME280;46115;44.484;11.314;2024-01-10T10:47:44;101554.94;;;6.71;58.09
60258;BME280;46115;44.484;11.314;2024-01-10T10:51:50;101559.69;;;7.01;57.28
60258;BME280;46115;44.484;11.314;2024-01-10T10:55:53;101554.53;;;6.94;56.97
60258;BME280;46115;44.484;11.314;2024-01-10T10:59:57;101558.56;;;7.16;57.11
60258;BME280;46115;44.484;11.314;2024-01-10T11:04:00;101551.25;;;6.81;56.21
60258;BME280;46115;44.484;11.314;2024-01-10T11:08:08;101549.06;;;7.07;56.77
60258;BME280;46115;44.484;11.314;2024-01-10T11:12:25;101533.66;;;6.86;57.34
60258;BME280;46115;44.484;11.314;2024-01-10T11:17:14;101549.72;;;6.68;57.04
60258;BME280;46115;44.484;11.314;2024-01-10T11:21:28;101546.28;;;7.15;57.03
60258;BME280;46115;44.484;11.314;2024-01-10T11:25:36;101541.00;;;7.16;56.68
60258;BME280;46115;44.484;11.314;2024-01-10T11:29:39;101543.19;;;6.92;57.65
60258;BME280;46115;44.484;11.314;2024-01-10T11:33:42;101511.59;;;6.96;57.03
60258;BME280;46115;44.484;11.314;2024-01-10T11:37:47;101541.25;;;7.04;56.76
60258;BME280;46115;44.484;11.314;2024-01-10T11:41:52;101533.25;;;7.10;56.17
60258;BME280;46115;44.484;11.314;2024-01-10T11:45:55;101531.03;;;6.84;57.98
60258;BME280;46115;44.484;11.314;2024-01-10T11:49:58;101526.34;;;7.05;56.77
60258;BME280;46115;44.484;11.314;2024-01-10T11:54:01;101529.16;;;6.94;57.12
60258;BME280;46115;44.484;11.314;2024-01-10T11:58:05;101524.22;;;7.24;56.88
60258;BME280;46115;44.484;11.314;2024-01-10T12:02:10;101503.38;;;6.64;57.15
60258;BME280;46115;44.484;11.314;2024-01-10T12:06:14;101513.38;;;6.93;57.33
60258;BME280;46115;44.484;11.314;2024-01-10T12:10:17;101504.41;;;7.06;56.69
60258;BME280;46115;44.484;11.314;2024-01-10T12:14:21;101499.94;;;7.09;57.04
60258;BME280;46115;44.484;11.314;2024-01-10T12:18:23;101477.13;;;7.11;55.85
60258;BME280;46115;44.484;11.314;2024-01-10T12:22:26;101499.88;;;7.14;57.53
60258;BME280;46115;44.484;11.314;2024-01-10T12:26:29;101490.13;;;7.19;56.27
60258;BME280;46115;44.484;11.314;2024-01-10T12:30:33;101491.00;;;7.19;56.22
60258;BME280;46115;44.484;11.314;2024-01-10T12:34:38;101492.38;;;6.39;58.88
60258;BME280;46115;44.484;11.314;2024-01-10T12:38:41;101483.28;;;7.10;56.64
60258;BME280;46115;44.484;11.314;2024-01-10T12:42:43;101492.72;;;7.20;57.36
60258;BME280;46115;44.484;11.314;2024-01-10T12:46:52;101490.16;;;7.17;57.70
60258;BME280;46115;44.484;11.314;2024-01-10T12:50:54;101492.88;;;7.13;57.36
60258;BME280;46115;44.484;11.314;2024-01-10T12:54:57;101475.47;;;7.06;57.22
60258;BME280;46115;44.484;11.314;2024-01-10T12:58:59;101478.38;;;6.91;57.49
60258;BME280;46115;44.484;11.314;2024-01-10T13:03:03;101464.91;;;7.09;57.37
60258;BME280;46115;44.484;11.314;2024-01-10T13:07:06;101468.69;;;6.94;57.42
60258;BME280;46115;44.484;11.314;2024-01-10T13:11:08;101466.03;;;6.96;58.15
60258;BME280;46115;44.484;11.314;2024-01-10T13:15:10;101453.78;;;6.93;58.94
60258;BME280;46115;44.484;11.314;2024-01-10T13:19:14;101463.59;;;7.31;57.05
60258;BME280;46115;44.484;11.314;2024-01-10T13:23:17;101455.84;;;7.24;56.47
60258;BME280;46115;44.484;11.314;2024-01-10T13:27:20;101450.94;;;7.05;57.23
60258;BME280;46115;44.484;11.314;2024-01-10T13:31:22;101446.75;;;6.94;58.07
60258;BME280;46115;44.484;11.314;2024-01-10T13:35:26;101443.09;;;7.04;58.17
60258;BME280;46115;44.484;11.314;2024-01-10T13:39:29;101452.03;;;6.95;58.05
60258;BME280;46115;44.484;11.314;2024-01-10T13:43:31;101449.25;;;7.03;58.93
60258;BME280;46115;44.484;11.314;2024-01-10T13:47:34;101442.38;;;7.40;58.18
60258;BME280;46115;44.484;11.314;2024-01-10T13:51:38;101447.84;;;7.30;58.45
60258;BME280;46115;44.484;11.314;2024-01-10T13:55:40;101439.75;;;6.96;58.58
60258;BME280;46115;44.484;11.314;2024-01-10T13:59:43;101439.69;;;6.99;59.49
60258;BME280;46115;44.484;11.314;2024-01-10T14:03:45;101440.78;;;7.33;58.41
60258;BME280;46115;44.484;11.314;2024-01-10T14:07:49;101433.91;;;7.25;58.25
60258;BME280;46115;44.484;11.314;2024-01-10T14:11:51;101435.84;;;7.15;58.55
60258;BME280;46115;44.484;11.314;2024-01-10T14:15:54;101401.97;;;7.01;58.27
60258;BME280;46115;44.484;11.314;2024-01-10T14:19:56;101431.88;;;6.96;58.79
60258;BME280;46115;44.484;11.314;2024-01-10T14:24:00;101432.06;;;7.30;58.23
60258;BME280;46115;44.484;11.314;2024-01-10T14:28:03;101426.47;;;7.02;59.69
60258;BME280;46115;44.484;11.314;2024-01-10T14:32:06;101420.00;;;7.18;58.54
60258;BME280;46115;44.484;11.314;2024-01-10T14:36:08;101435.00;;;7.14;58.51
60258;BME280;46115;44.484;11.314;2024-01-10T14:40:12;101427.53;;;6.92;59.99
60258;BME280;46115;44.484;11.314;2024-01-10T14:44:15;101440.44;;;7.05;60.05
60258;BME280;46115;44.484;11.314;2024-01-10T14:48:17;101439.47;;;7.09;59.70
60258;BME280;46115;44.484;11.314;2024-01-10T14:52:21;101428.84;;;7.15;59.42
60258;BME280;46115;44.484;11.314;2024-01-10T14:56:25;101442.50;;;6.88;61.02
60258;BME280;46115;44.484;11.314;2024-01-10T15:00:27;101449.75;;;6.75;60.88
60258;BME280;46115;44.484;11.314;2024-01-10T15:04:30;101439.56;;;7.05;59.52
60258;BME280;46115;44.484;11.314;2024-01-10T15:08:33;101437.81;;;7.05;59.31
60258;BME280;46115;44.484;11.314;2024-01-10T15:12:37;101448.34;;;7.04;60.38
60258;BME280;46115;44.484;11.314;2024-01-10T15:16:39;101442.41;;;6.94;61.37
60258;BME280;46115;44.484;11.314;2024-01-10T15:20:42;101432.28;;;6.73;61.78
60258;BME280;46115;44.484;11.314;2024-01-10T15:24:45;101446.19;;;6.78;62.07
60258;BME280;46115;44.484;11.314;2024-01-10T15:28:49;101442.38;;;6.96;61.22
60258;BME280;46115;44.484;11.314;2024-01-10T15:32:52;101452.97;;;6.40;62.40
60258;BME280;46115;44.484;11.314;2024-01-10T15:36:54;101445.63;;;6.61;63.25
60258;BME280;46115;44.484;11.314;2024-01-10T15:40:57;101452.56;;;6.09;62.87
60258;BME280;46115;44.484;11.314;2024-01-10T15:45:03;101450.34;;;6.39;63.37
60258;BME280;46115;44.484;11.314;2024-01-10T15:49:06;101448.38;;;6.51;62.53
60258;BME280;46115;44.484;11.314;2024-01-10T15:53:09;101460.00;;;6.38;63.22
60258;BME280;46115;44.484;11.314;2024-01-10T15:57:11;101441.38;;;6.52;62.53
60258;BME280;46115;44.484;11.314;2024-01-10T16:01:15;101444.41;;;6.29;63.90
60258;BME280;46115;44.484;11.314;2024-01-10T16:05:18;101435.34;;;6.47;62.70
60258;BME280;46115;44.484;11.314;2024-01-10T16:09:21;101442.09;;;6.08;64.55
60258;BME280;46115;44.484;11.314;2024-01-10T23:06:12;101429.53;;;4.93;70.15
60258;BME280;46115;44.484;11.314;2024-01-10T23:10:15;101420.66;;;5.05;69.22
60258;BME280;46115;44.484;11.314;2024-01-10T23:14:17;101421.13;;;5.40;68.17
60258;BME280;46115;44.484;11.314;2024-01-10T23:18:19;101427.44;;;5.24;67.56
60258;BME280;46115;44.484;11.314;2024-01-10T23:22:23;101407.69;;;4.94;68.85
60258;BME280;46115;44.484;11.314;2024-01-10T23:26:26;101411.56;;;5.36;68.05
60258;BME280;46115;44.484;11.314;2024-01-10T23:30:29;101408.16;;;5.29;68.02
60258;BME280;46115;44.484;11.314;2024-01-10T23:34:32;101406.50;;;5.19;68.34
60258;BME280;46115;44.484;11.314;2024-01-10T23:38:36;101389.06;;;5.17;68.90
60258;BME280;46115;44.484;11.314;2024-01-10T23:42:38;101392.94;;;5.54;66.80
60258;BME280;46115;44.484;11.314;2024-01-10T23:46:40;101397.53;;;5.39;68.33
60258;BME280;46115;44.484;11.314;2024-01-10T23:50:43;101353.91;;;5.33;66.64
60258;BME280;46115;44.484;11.314;2024-01-10T23:54:47;101390.59;;;5.35;66.33
60258;BME280;46115;44.484;11.314;2024-01-10T23:58:49;101392.75;;;5.70;66.88
